Time;durP1;ratioP1;P1;durP2;ratioP2;P2;SDS_P1;SDS_P2;PMS_P1;PMS_P2;Temp;Humidity;BMP_temperature;BMP_pressure;BME280_temperature;BME280_humidity;BME280_pressure;Samples;Min_cycle;Max_cycle;Signal;HPM_P1;HPM_P2
2023/05/07 00:01:00;;;;;;;11.73;8.02;;;;;;;;;;5050407;28;20400;-81
2023/05/07 00:03:26;;;;;;;13.63;8.60;;;;;;;;;;5053141;28;20033;-81
2023/05/07 00:05:52;;;;;;;13.27;8.45;;;;;;;;;;5035734;28;20076;-81
2023/05/07 00:08:18;;;;;;;14.95;8.18;;;;;;;;;;5052761;28;20033;-81
2023/05/07 00:10:44;;;;;;;15.80;8.85;;;;;;;;;;5049773;28;20515;-82
2023/05/07 00:13:10;;;;;;;15.85;8.65;;;;;;;;;;5052486;28;20095;-82
2023/05/07 00:15:35;;;;;;;13.57;8.00;;;;;;;;;;5050449;28;20547;-83
2023/05/07 00:18:01;;;;;;;15.13;8.65;;;;;;;;;;5051078;28;20032;-83
2023/05/07 00:20:26;;;;;;;11.35;7.80;;;;;;;;;;5045862;28;20037;-83
2023/05/07 00:22:52;;;;;;;15.77;8.27;;;;;;;;;;5061056;28;20504;-84
2023/05/07 00:25:19;;;;;;;12.60;8.30;;;;;;;;;;5052971;28;20453;-83
2023/05/07 00:27:45;;;;;;;11.35;7.18;;;;;;;;;;5044309;28;20048;-83
2023/05/07 00:30:11;;;;;;;12.93;7.85;;;;;;;;;;5053914;28;20037;-83
2023/05/07 00:32:36;;;;;;;14.48;8.07;;;;;;;;;;5039792;28;20607;-83
2023/05/07 00:35:02;;;;;;;11.82;7.32;;;;;;;;;;5060235;28;20033;-82
2023/05/07 00:37:28;;;;;;;15.70;7.78;;;;;;;;;;5060431;28;20037;-82
2023/05/07 00:39:53;;;;;;;12.32;7.53;;;;;;;;;;5053313;28;20051;-82
2023/05/07 00:42:18;;;;;;;14.32;8.10;;;;;;;;;;5052646;28;20061;-82
2023/05/07 00:44:44;;;;;;;13.10;7.95;;;;;;;;;;5056361;28;20040;-83
2023/05/07 00:47:09;;;;;;;12.02;7.43;;;;;;;;;;5037666;28;20497;-83
2023/05/07 00:49:40;;;;;;;12.77;7.55;;;;;;;;;;5052794;28;20052;-82
2023/05/07 00:52:07;;;;;;;14.15;7.75;;;;;;;;;;5051267;28;20063;-83
2023/05/07 00:54:33;;;;;;;11.32;7.47;;;;;;;;;;5042256;28;20500;-83
2023/05/07 00:56:59;;;;;;;11.10;6.85;;;;;;;;;;5053351;28;20033;-83
2023/05/07 00:59:24;;;;;;;13.40;7.15;;;;;;;;;;5057345;28;20048;-82
2023/05/07 01:01:50;;;;;;;10.60;6.32;;;;;;;;;;5060997;28;20041;-82
2023/05/07 01:04:15;;;;;;;12.18;6.22;;;;;;;;;;5055449;28;20302;-83
2023/05/07 01:06:41;;;;;;;11.27;6.75;;;;;;;;;;5053737;28;20090;-82
2023/05/07 01:09:07;;;;;;;10.57;6.30;;;;;;;;;;5055614;28;20070;-83
2023/05/07 01:11:32;;;;;;;10.60;6.90;;;;;;;;;;5037217;28;20477;-82
2023/05/07 01:13:59;;;;;;;9.82;6.40;;;;;;;;;;5060097;28;20041;-83
2023/05/07 01:16:25;;;;;;;10.20;6.32;;;;;;;;;;5054783;28;20036;-82
2023/05/07 01:18:50;;;;;;;12.48;5.22;;;;;;;;;;5052395;28;20041;-82
2023/05/07 01:21:18;;;;;;;9.52;6.13;;;;;;;;;;5061599;28;20554;-83
2023/05/07 01:23:44;;;;;;;9.90;5.65;;;;;;;;;;5036187;28;20389;-83
2023/05/07 01:26:10;;;;;;;8.23;5.55;;;;;;;;;;5060453;28;20764;-83
2023/05/07 01:28:35;;;;;;;8.77;5.97;;;;;;;;;;5053572;28;20080;-83
2023/05/07 01:31:03;;;;;;;11.07;6.15;;;;;;;;;;5052104;28;20032;-83
2023/05/07 01:33:49;;;;;;;12.32;6.05;;;;;;;;;;5051714;28;20519;-82
2023/05/07 01:36:17;;;;;;;9.43;6.10;;;;;;;;;;4993244;28;20125;-83
2023/05/07 01:38:43;;;;;;;10.43;6.70;;;;;;;;;;4984369;28;20498;-83
2023/05/07 01:41:08;;;;;;;9.65;6.07;;;;;;;;;;4976996;28;20089;-83
2023/05/07 01:43:33;;;;;;;11.63;6.63;;;;;;;;;;4955378;28;20133;-83
2023/05/07 01:46:00;;;;;;;9.77;6.53;;;;;;;;;;4967604;28;20037;-82
2023/05/07 01:48:25;;;;;;;10.85;6.35;;;;;;;;;;4980027;28;20112;-83
2023/05/07 01:50:51;;;;;;;11.68;6.78;;;;;;;;;;4966966;28;20038;-82
2023/05/07 01:53:17;;;;;;;11.23;7.38;;;;;;;;;;4994639;28;20037;-83
2023/05/07 01:55:42;;;;;;;11.75;7.28;;;;;;;;;;4995371;28;20039;-83
2023/05/07 01:58:07;;;;;;;13.20;7.25;;;;;;;;;;4977856;28;20446;-83
2023/05/07 02:00:33;;;;;;;11.40;7.10;;;;;;;;;;4994340;28;20099;-82
2023/05/07 02:02:58;;;;;;;10.75;7.38;;;;;;;;;;4990964;28;20088;-82
2023/05/07 02:05:24;;;;;;;10.55;7.05;;;;;;;;;;4983030;28;20046;-82
2023/05/07 02:08:04;;;;;;;14.95;7.65;;;;;;;;;;4978135;28;20053;-82
2023/05/07 02:10:30;;;;;;;14.70;7.20;;;;;;;;;;4963773;28;20038;-83
2023/05/07 02:12:55;;;;;;;11.05;7.53;;;;;;;;;;5013468;28;20037;-82
2023/05/07 02:15:20;;;;;;;13.70;7.18;;;;;;;;;;5049910;28;20035;-82
2023/05/07 02:18:07;;;;;;;12.77;6.43;;;;;;;;;;5048708;28;20063;-83
2023/05/07 02:20:33;;;;;;;9.93;6.68;;;;;;;;;;5037850;28;20400;-83
2023/05/07 02:22:58;;;;;;;9.15;6.78;;;;;;;;;;5050654;28;20028;-84
2023/05/07 02:25:23;;;;;;;11.50;6.72;;;;;;;;;;5048494;28;20041;-83
2023/05/07 02:27:49;;;;;;;13.45;7.15;;;;;;;;;;5051862;28;20037;-82
2023/05/07 02:30:14;;;;;;;10.07;6.65;;;;;;;;;;5055274;28;20451;-83
2023/05/07 02:32:40;;;;;;;10.70;7.03;;;;;;;;;;5050681;28;20052;-84
2023/05/07 02:35:05;;;;;;;11.32;6.43;;;;;;;;;;5051208;28;20041;-83
2023/05/07 02:37:31;;;;;;;10.68;6.68;;;;;;;;;;5059752;28;20120;-83
2023/05/07 02:39:56;;;;;;;10.00;6.70;;;;;;;;;;5037790;28;20029;-83
2023/05/07 02:42:22;;;;;;;12.20;7.00;;;;;;;;;;5051291;28;20452;-83
2023/05/07 02:44:47;;;;;;;10.25;6.05;;;;;;;;;;5061068;28;20036;-83
2023/05/07 02:47:14;;;;;;;10.38;6.05;;;;;;;;;;5051939;28;20150;-84
2023/05/07 02:49:40;;;;;;;10.23;6.53;;;;;;;;;;5052066;28;20793;-83
2023/05/07 02:52:06;;;;;;;10.30;6.30;;;;;;;;;;5050986;28;20044;-84
2023/05/07 02:54:31;;;;;;;9.00;6.25;;;;;;;;;;5036599;28;20041;-83
2023/05/07 02:56:57;;;;;;;10.00;6.53;;;;;;;;;;5037237;28;20044;-83
2023/05/07 02:59:23;;;;;;;10.35;6.80;;;;;;;;;;5050321;28;20061;-83
2023/05/07 03:01:49;;;;;;;11.13;6.72;;;;;;;;;;5049960;28;20480;-81
2023/05/07 03:04:14;;;;;;;10.73;6.22;;;;;;;;;;5052224;28;20052;-83
2023/05/07 03:06:39;;;;;;;9.02;6.13;;;;;;;;;;5057697;28;20032;-83
2023/05/07 03:09:05;;;;;;;9.23;5.90;;;;;;;;;;5051039;28;20044;-83
2023/05/07 03:11:30;;;;;;;11.65;6.70;;;;;;;;;;5049780;28;20040;-83
2023/05/07 03:13:55;;;;;;;10.98;6.35;;;;;;;;;;5052935;28;20033;-82
2023/05/07 03:16:21;;;;;;;10.38;6.70;;;;;;;;;;5051224;28;20451;-83
2023/05/07 03:18:46;;;;;;;8.88;5.78;;;;;;;;;;5050871;28;20158;-83
2023/05/07 03:21:12;;;;;;;8.88;5.80;;;;;;;;;;5057638;28;20129;-83
2023/05/07 03:23:37;;;;;;;9.63;6.15;;;;;;;;;;5052221;28;20048;-83
2023/05/07 03:26:02;;;;;;;10.52;5.70;;;;;;;;;;5050235;28;20024;-83
2023/05/07 03:28:28;;;;;;;9.25;5.95;;;;;;;;;;5056183;28;20064;-82
2023/05/07 03:30:53;;;;;;;7.43;5.13;;;;;;;;;;5051074;28;20401;-82
2023/05/07 03:33:19;;;;;;;8.70;6.05;;;;;;;;;;5027693;28;20037;-82
2023/05/07 03:35:44;;;;;;;11.43;7.00;;;;;;;;;;5025506;28;20037;-83
2023/05/07 03:38:11;;;;;;;11.07;6.05;;;;;;;;;;5051095;28;20040;-83
2023/05/07 03:40:36;;;;;;;11.93;7.05;;;;;;;;;;5035564;28;20033;-83
2023/05/07 03:43:02;;;;;;;9.60;5.85;;;;;;;;;;5050289;28;20375;-82
2023/05/07 03:45:27;;;;;;;10.57;6.10;;;;;;;;;;5049935;28;20041;-82
2023/05/07 03:47:52;;;;;;;8.73;6.30;;;;;;;;;;5037637;28;20033;-83
2023/05/07 03:50:18;;;;;;;9.48;6.05;;;;;;;;;;5054147;28;20029;-83
2023/05/07 03:52:43;;;;;;;11.15;7.07;;;;;;;;;;5052088;28;20193;-83
2023/05/07 03:55:09;;;;;;;10.00;6.20;;;;;;;;;;5058621;28;20045;-83
2023/05/07 03:57:35;;;;;;;11.25;6.13;;;;;;;;;;5051719;28;20512;-83
2023/05/07 04:00:00;;;;;;;10.23;6.82;;;;;;;;;;5048517;28;20036;-83
2023/05/07 04:02:25;;;;;;;9.77;6.05;;;;;;;;;;5049933;28;20036;-83
2023/05/07 04:04:52;;;;;;;10.38;6.70;;;;;;;;;;5049740;28;20388;-82
2023/05/07 04:07:17;;;;;;;11.80;6.72;;;;;;;;;;5050380;28;20086;-82
2023/05/07 04:09:42;;;;;;;10.00;6.43;;;;;;;;;;5048740;28;20036;-83
2023/05/07 04:12:08;;;;;;;9.65;5.95;;;;;;;;;;5049061;28;20501;-83
2023/05/07 04:14:33;;;;;;;9.70;6.25;;;;;;;;;;5041189;28;20033;-83
2023/05/07 04:16:59;;;;;;;10.48;6.72;;;;;;;;;;5058913;28;20033;-83
2023/05/07 04:19:25;;;;;;;9.50;6.70;;;;;;;;;;5037421;28;20523;-82
2023/05/07 04:21:50;;;;;;;13.07;6.30;;;;;;;;;;5050796;28;20108;-82
2023/05/07 04:24:15;;;;;;;10.38;6.57;;;;;;;;;;5051155;28;20036;-83
2023/05/07 04:26:41;;;;;;;10.18;6.32;;;;;;;;;;5048349;28;20045;-83
2023/05/07 04:29:06;;;;;;;10.05;6.53;;;;;;;;;;5049588;28;20040;-83
2023/05/07 04:31:32;;;;;;;11.82;6.47;;;;;;;;;;5048531;28;20135;-83
2023/05/07 04:33:57;;;;;;;11.50;6.57;;;;;;;;;;5051050;28;20124;-84
2023/05/07 04:36:23;;;;;;;10.43;6.18;;;;;;;;;;5050210;28;20121;-83
2023/05/07 04:38:49;;;;;;;8.90;6.15;;;;;;;;;;5053238;28;20061;-79
2023/05/07 04:41:14;;;;;;;10.13;6.40;;;;;;;;;;5040827;28;20116;-81
2023/05/07 04:43:41;;;;;;;8.35;5.22;;;;;;;;;;5042202;28;20064;-80
2023/05/07 04:46:07;;;;;;;9.93;6.00;;;;;;;;;;5053783;28;20033;-80
2023/05/07 04:48:32;;;;;;;8.80;5.35;;;;;;;;;;5049611;28;20403;-80
2023/05/07 04:50:57;;;;;;;13.10;5.85;;;;;;;;;;5037934;28;20029;-80
2023/05/07 04:53:23;;;;;;;8.45;5.25;;;;;;;;;;5047688;28;20168;-79
2023/05/07 04:55:48;;;;;;;10.45;5.50;;;;;;;;;;5043630;28;20528;-77
2023/05/07 04:58:14;;;;;;;8.38;4.70;;;;;;;;;;5034514;28;20045;-80
2023/05/07 05:00:39;;;;;;;10.32;5.85;;;;;;;;;;5017723;28;20097;-80
2023/05/07 05:03:06;;;;;;;10.60;5.30;;;;;;;;;;5049596;28;20037;-80
2023/05/07 05:05:32;;;;;;;7.10;4.88;;;;;;;;;;5044773;28;20048;-81
2023/05/07 05:07:57;;;;;;;8.73;4.88;;;;;;;;;;5055110;28;20056;-80
2023/05/07 05:10:23;;;;;;;9.82;5.70;;;;;;;;;;5051701;28;20099;-80
2023/05/07 05:12:48;;;;;;;9.65;5.30;;;;;;;;;;5053536;28;20372;-80
2023/05/07 05:15:13;;;;;;;8.27;5.03;;;;;;;;;;5053737;28;20120;-78
2023/05/07 05:17:39;;;;;;;7.55;4.85;;;;;;;;;;5050993;28;20040;-80
2023/05/07 05:20:05;;;;;;;12.05;5.07;;;;;;;;;;5050944;28;20076;-80
2023/05/07 05:22:31;;;;;;;9.82;5.07;;;;;;;;;;5043610;28;20028;-81
2023/05/07 05:24:57;;;;;;;9.70;5.28;;;;;;;;;;5051967;28;20036;-80
2023/05/07 05:27:22;;;;;;;11.00;4.90;;;;;;;;;;5034290;28;20059;-80
2023/05/07 05:29:48;;;;;;;9.15;4.85;;;;;;;;;;5054367;28;20041;-80
2023/05/07 05:32:13;;;;;;;8.45;5.05;;;;;;;;;;5037551;28;20079;-82
2023/05/07 05:34:38;;;;;;;6.90;4.55;;;;;;;;;;5052855;28;20052;-81
2023/05/07 05:37:04;;;;;;;6.93;4.38;;;;;;;;;;5036811;28;20029;-81
2023/05/07 05:39:29;;;;;;;8.55;5.07;;;;;;;;;;5043874;28;20574;-82
2023/05/07 05:41:55;;;;;;;7.88;4.50;;;;;;;;;;5053775;28;20033;-81
2023/05/07 05:44:20;;;;;;;9.27;5.55;;;;;;;;;;5062082;28;20059;-80
2023/05/07 05:46:45;;;;;;;6.95;4.57;;;;;;;;;;5051740;28;20060;-81
2023/05/07 05:49:11;;;;;;;7.50;4.13;;;;;;;;;;5054827;28;20047;-81
2023/05/07 05:51:36;;;;;;;7.70;4.65;;;;;;;;;;5043819;28;20064;-80
2023/05/07 05:54:01;;;;;;;7.13;4.50;;;;;;;;;;5034092;28;20036;-80
2023/05/07 05:56:27;;;;;;;8.27;4.85;;;;;;;;;;5052434;28;20037;-81
2023/05/07 05:58:52;;;;;;;7.10;4.55;;;;;;;;;;5049723;28;20040;-81
2023/05/07 06:01:18;;;;;;;7.72;4.60;;;;;;;;;;5060096;28;20502;-82
2023/05/07 06:03:44;;;;;;;8.15;4.43;;;;;;;;;;5039133;28;20033;-82
2023/05/07 06:06:09;;;;;;;7.60;4.20;;;;;;;;;;5035101;28;20052;-82
2023/05/07 06:08:35;;;;;;;6.88;4.13;;;;;;;;;;5053649;28;20040;-83
2023/05/07 06:11:01;;;;;;;6.50;3.78;;;;;;;;;;5043634;28;20033;-83
2023/05/07 06:13:26;;;;;;;8.15;4.45;;;;;;;;;;5037884;28;20473;-82
2023/05/07 06:15:51;;;;;;;8.32;4.05;;;;;;;;;;5051049;28;20040;-81
2023/05/07 06:18:17;;;;;;;7.13;4.00;;;;;;;;;;5052950;28;20079;-84
2023/05/07 06:20:45;;;;;;;7.43;4.25;;;;;;;;;;5039032;28;20044;-83
2023/05/07 06:23:10;;;;;;;;;;;;;;;;;;5051254;28;20041;-82
2023/05/07 06:25:38;;;;;;;5.95;3.70;;;;;;;;;;5050449;28;19969;-82
2023/05/07 06:28:04;;;;;;;6.03;3.47;;;;;;;;;;5052980;28;20045;-82
2023/05/07 06:30:29;;;;;;;5.32;3.33;;;;;;;;;;5042283;28;20468;-82
2023/05/07 06:32:55;;;;;;;5.57;3.10;;;;;;;;;;5055732;28;20064;-81
2023/05/07 06:35:20;;;;;;;7.88;3.38;;;;;;;;;;5047796;28;20056;-80
2023/05/07 06:37:46;;;;;;;4.90;3.17;;;;;;;;;;5049561;28;20041;-82
2023/05/07 06:40:12;;;;;;;8.40;3.38;;;;;;;;;;5049499;28;20029;-83
2023/05/07 06:42:37;;;;;;;6.15;3.78;;;;;;;;;;5040954;28;20025;-83
2023/05/07 06:45:04;;;;;;;6.53;3.60;;;;;;;;;;5059078;28;20586;-82
2023/05/07 06:47:29;;;;;;;8.10;3.45;;;;;;;;;;5048971;28;20099;-82
2023/05/07 06:49:54;;;;;;;8.30;3.80;;;;;;;;;;5036164;28;20439;-82
2023/05/07 06:52:20;;;;;;;6.95;4.13;;;;;;;;;;5048307;28;20040;-81
2023/05/07 06:54:46;;;;;;;6.43;3.95;;;;;;;;;;5034616;28;20037;-82
2023/05/07 06:57:11;;;;;;;6.13;3.67;;;;;;;;;;5048178;28;20476;-81
2023/05/07 06:59:38;;;;;;;5.70;3.33;;;;;;;;;;5049551;28;20128;-81
2023/05/07 07:02:04;;;;;;;6.43;3.50;;;;;;;;;;5050409;28;20122;-82
2023/05/07 07:04:29;;;;;;;5.45;3.13;;;;;;;;;;5026891;28;20127;-82
2023/05/07 07:06:56;;;;;;;6.18;3.92;;;;;;;;;;5031680;28;20166;-80
2023/05/07 07:09:21;;;;;;;7.10;3.78;;;;;;;;;;5043913;28;20488;-80
2023/05/07 07:11:47;;;;;;;7.47;4.18;;;;;;;;;;5039225;28;20036;-82
2023/05/07 07:14:13;;;;;;;7.13;4.40;;;;;;;;;;5041070;28;20066;-81
2023/05/07 07:16:38;;;;;;;8.05;4.05;;;;;;;;;;5033062;28;20036;-83
2023/05/07 07:19:03;;;;;;;6.68;4.07;;;;;;;;;;5048334;28;20090;-84
2023/05/07 07:21:29;;;;;;;5.75;3.97;;;;;;;;;;5043016;28;20052;-83
2023/05/07 07:23:55;;;;;;;5.82;3.80;;;;;;;;;;5048825;28;20072;-84
2023/05/07 07:26:20;;;;;;;6.68;3.40;;;;;;;;;;5049956;28;20060;-81
2023/05/07 07:28:46;;;;;;;6.13;3.70;;;;;;;;;;5054608;28;20036;-82
2023/05/07 07:31:12;;;;;;;5.68;3.30;;;;;;;;;;5048471;28;20059;-84
2023/05/07 07:33:37;;;;;;;5.75;3.25;;;;;;;;;;5050196;28;20094;-85
2023/05/07 07:36:03;;;;;;;5.38;3.25;;;;;;;;;;5051366;28;20029;-84
2023/05/07 07:38:28;;;;;;;7.22;3.30;;;;;;;;;;5039160;28;20048;-85
2023/05/07 07:40:53;;;;;;;5.57;2.95;;;;;;;;;;5035867;28;20446;-83
2023/05/07 07:43:19;;;;;;;6.28;2.95;;;;;;;;;;5050526;28;20047;-83
2023/05/07 07:45:45;;;;;;;5.53;3.03;;;;;;;;;;5049798;28;20485;-84
2023/05/07 07:48:11;;;;;;;5.75;2.90;;;;;;;;;;5040338;28;20580;-84
2023/05/07 07:50:36;;;;;;;6.28;3.10;;;;;;;;;;5041770;28;20705;-86
2023/05/07 07:53:02;;;;;;;4.93;2.72;;;;;;;;;;5048971;28;20056;-85
2023/05/07 07:55:27;;;;;;;4.30;2.58;;;;;;;;;;5046835;28;20041;-84
2023/05/07 07:57:53;;;;;;;4.07;2.72;;;;;;;;;;5052268;28;20504;-85
2023/05/07 08:00:18;;;;;;;6.72;2.58;;;;;;;;;;5050339;28;20036;-83
2023/05/07 08:02:44;;;;;;;5.40;2.55;;;;;;;;;;5048053;28;20468;-84
2023/05/07 08:05:09;;;;;;;6.55;2.75;;;;;;;;;;5051604;28;20036;-84
2023/05/07 08:07:34;;;;;;;4.75;2.50;;;;;;;;;;5048488;28;20043;-84
2023/05/07 08:10:00;;;;;;;4.95;2.40;;;;;;;;;;5049195;28;20120;-85
2023/05/07 08:12:25;;;;;;;5.68;2.67;;;;;;;;;;5049846;28;20044;-83
2023/05/07 08:14:51;;;;;;;5.07;2.40;;;;;;;;;;5050551;28;20029;-83
2023/05/07 08:17:16;;;;;;;3.80;2.13;;;;;;;;;;5050165;28;20036;-85
2023/05/07 08:19:43;;;;;;;3.90;1.90;;;;;;;;;;5051888;28;20182;-85
2023/05/07 08:22:09;;;;;;;4.53;2.20;;;;;;;;;;5050041;28;20098;-85
2023/05/07 08:24:34;;;;;;;4.35;1.95;;;;;;;;;;5049257;28;20071;-85
2023/05/07 08:26:59;;;;;;;3.97;2.10;;;;;;;;;;5034031;28;20487;-85
2023/05/07 08:29:25;;;;;;;4.50;1.90;;;;;;;;;;5055264;28;20037;-85
2023/05/07 08:31:51;;;;;;;3.45;1.60;;;;;;;;;;5050075;28;20404;-84
2023/05/07 08:34:17;;;;;;;3.80;1.85;;;;;;;;;;5053864;28;20029;-85
2023/05/07 08:36:44;;;;;;;3.13;1.88;;;;;;;;;;5049312;28;20044;-84
2023/05/07 08:39:09;;;;;;;4.60;2.20;;;;;;;;;;5051071;28;21422;-85
2023/05/07 08:41:34;;;;;;;4.80;1.98;;;;;;;;;;5052423;28;20138;-85
2023/05/07 08:44:03;;;;;;;4.82;1.77;;;;;;;;;;5056398;28;20036;-84
2023/05/07 08:46:31;;;;;;;3.42;1.67;;;;;;;;;;5060184;28;20048;-83
2023/05/07 08:48:56;;;;;;;4.50;1.77;;;;;;;;;;5045311;28;20040;-84
2023/05/07 08:51:22;;;;;;;3.25;1.60;;;;;;;;;;5056692;28;20029;-84
2023/05/07 08:53:48;;;;;;;3.63;1.63;;;;;;;;;;5052399;28;20538;-85
2023/05/07 08:56:17;;;;;;;5.00;2.05;;;;;;;;;;5053574;28;20538;-84
2023/05/07 08:58:44;;;;;;;3.70;1.75;;;;;;;;;;5057651;28;20043;-85
2023/05/07 09:01:15;;;;;;;4.65;1.70;;;;;;;;;;5045876;28;20063;-84
2023/05/07 09:03:44;;;;;;;5.47;1.85;;;;;;;;;;5055826;28;20571;-84
2023/05/07 09:06:11;;;;;;;3.88;1.73;;;;;;;;;;5059028;28;20040;-84
2023/05/07 09:08:36;;;;;;;3.55;1.58;;;;;;;;;;5052989;28;20518;-84
2023/05/07 09:11:02;;;;;;;3.40;1.70;;;;;;;;;;5052137;28;20028;-83
2023/05/07 09:13:28;;;;;;;4.18;1.52;;;;;;;;;;5054094;28;20045;-83
2023/05/07 09:15:54;;;;;;;4.05;2.15;;;;;;;;;;5052699;28;20488;-82
2023/05/07 09:18:19;;;;;;;3.88;1.58;;;;;;;;;;5040892;28;20044;-84
2023/05/07 09:20:44;;;;;;;3.20;1.55;;;;;;;;;;5054719;28;20102;-84
2023/05/07 09:23:10;;;;;;;3.10;1.50;;;;;;;;;;5053462;28;20587;-83
2023/05/07 09:25:36;;;;;;;4.70;1.63;;;;;;;;;;5060681;28;20035;-85
2023/05/07 09:28:03;;;;;;;3.60;1.60;;;;;;;;;;5037543;28;20032;-83
2023/05/07 09:30:32;;;;;;;3.45;1.55;;;;;;;;;;5051463;28;20742;-84
2023/05/07 09:32:59;;;;;;;2.72;1.40;;;;;;;;;;5053277;28;20033;-85
2023/05/07 09:35:27;;;;;;;2.90;1.50;;;;;;;;;;5051350;28;20041;-82
2023/05/07 09:37:55;;;;;;;;;;;;;;;;;;5040870;28;20910;-84
2023/05/07 09:40:25;;;;;;;3.60;1.70;;;;;;;;;;5055273;28;19970;-83
2023/05/07 09:42:51;;;;;;;2.28;1.17;;;;;;;;;;5061555;28;20037;-84
2023/05/07 09:45:22;;;;;;;4.95;1.73;;;;;;;;;;5039511;28;20361;-84
2023/05/07 09:47:48;;;;;;;4.85;1.70;;;;;;;;;;5058270;28;20032;-84
2023/05/07 09:50:15;;;;;;;2.80;1.42;;;;;;;;;;5061205;28;20036;-83
2023/05/07 09:52:42;;;;;;;3.13;1.50;;;;;;;;;;5052091;28;20037;-84
2023/05/07 09:55:08;;;;;;;2.85;1.42;;;;;;;;;;5052671;28;20029;-84
2023/05/07 09:57:34;;;;;;;2.80;1.40;;;;;;;;;;5051913;28;20388;-84
2023/05/07 10:00:04;;;;;;;3.42;1.70;;;;;;;;;;5061478;28;20033;-84
2023/05/07 10:02:30;;;;;;;2.95;1.35;;;;;;;;;;5049846;28;20044;-84
2023/05/07 10:04:56;;;;;;;3.15;1.50;;;;;;;;;;5054052;28;20388;-84
2023/05/07 10:07:22;;;;;;;2.75;1.38;;;;;;;;;;5049290;28;20035;-83
2023/05/07 10:09:48;;;;;;;2.78;1.40;;;;;;;;;;5054986;28;20089;-84
2023/05/07 10:12:15;;;;;;;3.45;1.48;;;;;;;;;;5053191;28;20033;-84
2023/05/07 10:14:40;;;;;;;3.13;1.50;;;;;;;;;;5060149;28;20033;-84
2023/05/07 10:17:06;;;;;;;2.85;1.40;;;;;;;;;;5060810;28;20037;-85
2023/05/07 10:19:32;;;;;;;3.47;1.60;;;;;;;;;;5061119;28;20170;-84
2023/05/07 10:22:02;;;;;;;3.83;1.57;;;;;;;;;;5040595;28;20048;-85
2023/05/07 10:24:33;;;;;;;3.20;1.40;;;;;;;;;;5052239;28;20036;-84
2023/05/07 10:27:00;;;;;;;4.15;1.67;;;;;;;;;;5052580;28;20056;-83
2023/05/07 10:29:32;;;;;;;3.47;1.48;;;;;;;;;;5043543;28;20551;-84
2023/05/07 10:32:35;;;;;;;3.33;1.20;;;;;;;;;;5050830;28;20040;-83
2023/05/07 10:35:03;;;;;;;3.25;1.40;;;;;;;;;;5052718;28;20029;-83
2023/05/07 10:37:28;;;;;;;4.15;1.65;;;;;;;;;;5049391;28;20190;-83
2023/05/07 10:39:54;;;;;;;2.88;1.30;;;;;;;;;;5053606;28;20411;-83
2023/05/07 10:42:20;;;;;;;4.05;1.38;;;;;;;;;;5051722;28;20492;-84
2023/05/07 10:44:45;;;;;;;3.08;1.30;;;;;;;;;;5051391;28;20036;-83
2023/05/07 10:47:12;;;;;;;2.45;1.10;;;;;;;;;;5050080;28;20112;-84
2023/05/07 10:49:43;;;;;;;2.28;1.00;;;;;;;;;;5052515;28;20041;-83
2023/05/07 10:52:24;;;;;;;2.20;1.08;;;;;;;;;;5050455;28;20492;-84
2023/05/07 10:55:14;;;;;;;2.55;1.05;;;;;;;;;;5053962;28;20064;-84
2023/05/07 10:57:40;;;;;;;2.97;0.90;;;;;;;;;;5067779;28;20044;-84
2023/05/07 11:00:23;;;;;;;2.85;1.00;;;;;;;;;;5042664;28;20108;-84
2023/05/07 11:03:01;;;;;;;3.00;0.93;;;;;;;;;;5049570;28;20032;-84
2023/05/07 11:05:28;;;;;;;2.97;1.00;;;;;;;;;;5050303;28;20036;-83
2023/05/07 11:08:04;;;;;;;2.25;1.00;;;;;;;;;;5043517;28;20028;-83
2023/05/07 11:10:55;;;;;;;1.85;0.90;;;;;;;;;;5049561;28;20040;-84
2023/05/07 11:13:44;;;;;;;2.20;1.13;;;;;;;;;;5035343;28;20048;-83
2023/05/07 11:16:31;;;;;;;2.13;0.80;;;;;;;;;;5048632;28;20115;-84
2023/05/07 11:18:56;;;;;;;2.25;0.88;;;;;;;;;;5051287;28;20044;-84
2023/05/07 11:21:43;;;;;;;2.05;0.82;;;;;;;;;;5057270;28;20446;-84
2023/05/07 11:24:10;;;;;;;1.83;0.77;;;;;;;;;;5051852;28;20033;-84
2023/05/07 11:26:46;;;;;;;2.20;0.95;;;;;;;;;;5051671;28;20148;-84
2023/05/07 11:29:19;;;;;;;2.25;0.95;;;;;;;;;;5042997;28;20041;-84
2023/05/07 11:31:51;;;;;;;2.90;1.42;;;;;;;;;;5050367;28;20039;-84
2023/05/07 11:34:24;;;;;;;2.90;0.80;;;;;;;;;;5067229;28;20029;-84
2023/05/07 11:36:50;;;;;;;1.50;0.68;;;;;;;;;;5050553;28;20021;-85
2023/05/07 11:39:24;;;;;;;4.40;0.90;;;;;;;;;;5053850;28;20042;-85
2023/05/07 11:41:50;;;;;;;1.95;0.88;;;;;;;;;;5048960;28;20587;-83
2023/05/07 11:44:15;;;;;;;1.85;0.60;;;;;;;;;;5050647;28;20116;-84
2023/05/07 11:46:44;;;;;;;2.67;0.80;;;;;;;;;;5050377;28;20036;-85
2023/05/07 11:49:10;;;;;;;3.15;0.70;;;;;;;;;;5049499;28;20033;-85
2023/05/07 11:51:35;;;;;;;1.48;0.70;;;;;;;;;;5052945;28;20044;-85
2023/05/07 11:54:03;;;;;;;2.38;0.60;;;;;;;;;;5051613;28;20511;-85
2023/05/07 11:56:29;;;;;;;2.22;0.70;;;;;;;;;;5058465;28;20037;-85
2023/05/07 11:58:54;;;;;;;1.55;0.70;;;;;;;;;;5059528;28;20055;-84
2023/05/07 12:01:20;;;;;;;1.48;0.68;;;;;;;;;;5049920;28;20037;-84
2023/05/07 12:03:45;;;;;;;1.70;0.73;;;;;;;;;;5048608;28;20090;-84
2023/05/07 12:06:12;;;;;;;2.47;0.90;;;;;;;;;;5048517;28;20036;-83
2023/05/07 12:08:41;;;;;;;2.45;0.80;;;;;;;;;;5053967;28;20086;-84
2023/05/07 12:11:11;;;;;;;2.92;0.80;;;;;;;;;;5058316;28;20036;-84
2023/05/07 12:13:36;;;;;;;2.83;1.20;;;;;;;;;;5054335;28;20837;-84
2023/05/07 12:16:05;;;;;;;2.85;1.20;;;;;;;;;;5045539;28;20108;-83
2023/05/07 12:18:30;;;;;;;2.28;1.00;;;;;;;;;;5057404;28;20165;-84
2023/05/07 12:20:56;;;;;;;2.20;0.90;;;;;;;;;;5055323;28;20061;-84
2023/05/07 12:23:22;;;;;;;1.75;0.80;;;;;;;;;;5037224;28;20095;-84
2023/05/07 12:25:47;;;;;;;3.40;1.00;;;;;;;;;;5063115;28;20029;-84
2023/05/07 12:28:16;;;;;;;3.33;0.95;;;;;;;;;;5055162;28;20037;-86
2023/05/07 12:30:43;;;;;;;2.50;0.75;;;;;;;;;;5040762;28;20033;-84
2023/05/07 12:33:09;;;;;;;3.15;0.85;;;;;;;;;;5044309;28;20045;-85
2023/05/07 12:35:40;;;;;;;2.08;0.70;;;;;;;;;;5053528;28;20380;-84
2023/05/07 12:38:10;;;;;;;2.20;0.90;;;;;;;;;;5062096;28;20052;-85
2023/05/07 12:40:43;;;;;;;2.25;1.00;;;;;;;;;;5036800;28;20033;-85
2023/05/07 12:43:19;;;;;;;2.22;0.98;;;;;;;;;;5055604;28;20040;-85
2023/05/07 12:45:46;;;;;;;2.85;1.05;;;;;;;;;;5062529;28;20512;-86
2023/05/07 12:48:12;;;;;;;;;;;;;;;;;;5069142;28;20048;-86
2023/05/07 12:50:37;;;;;;;1.90;0.90;;;;;;;;;;5056259;28;19916;-85
2023/05/07 12:53:05;;;;;;;2.45;1.00;;;;;;;;;;5053104;28;20438;-83
2023/05/07 12:55:32;;;;;;;2.00;1.00;;;;;;;;;;5052967;28;20566;-83
2023/05/07 12:57:58;;;;;;;2.97;1.10;;;;;;;;;;5039327;28;20857;-84
2023/05/07 13:00:36;;;;;;;2.50;1.02;;;;;;;;;;5043304;28;20035;-84
2023/05/07 13:03:02;;;;;;;2.70;1.02;;;;;;;;;;5051529;28;20033;-84
2023/05/07 13:05:27;;;;;;;2.38;1.00;;;;;;;;;;5059793;28;20040;-83
2023/05/07 13:07:56;;;;;;;2.10;0.82;;;;;;;;;;5054458;28;20576;-83
2023/05/07 13:10:23;;;;;;;3.50;1.27;;;;;;;;;;5042044;28;20040;-83
2023/05/07 13:12:48;;;;;;;2.23;1.00;;;;;;;;;;5046206;28;20384;-83
2023/05/07 13:15:13;;;;;;;2.78;1.00;;;;;;;;;;5052025;28;20036;-83
2023/05/07 13:17:39;;;;;;;3.08;1.00;;;;;;;;;;5053215;28;20141;-84
2023/05/07 13:20:05;;;;;;;2.83;1.10;;;;;;;;;;5045833;28;20609;-84
2023/05/07 13:22:31;;;;;;;1.85;0.90;;;;;;;;;;5054771;28;20040;-86
2023/05/07 13:24:57;;;;;;;3.17;0.88;;;;;;;;;;5049990;28;20048;-83
2023/05/07 13:27:22;;;;;;;2.60;0.80;;;;;;;;;;5055704;28;20095;-83
2023/05/07 13:29:47;;;;;;;1.95;0.90;;;;;;;;;;5053715;28;20040;-84
2023/05/07 13:32:13;;;;;;;3.20;0.85;;;;;;;;;;5054759;28;20039;-85
2023/05/07 13:34:38;;;;;;;2.22;0.80;;;;;;;;;;5054508;28;20067;-85
2023/05/07 13:37:03;;;;;;;1.83;0.77;;;;;;;;;;5051582;28;20032;-85
2023/05/07 13:39:29;;;;;;;1.75;0.60;;;;;;;;;;5052575;28;20123;-84
2023/05/07 13:41:54;;;;;;;1.77;0.70;;;;;;;;;;5052576;28;20464;-86
2023/05/07 13:44:20;;;;;;;1.67;0.60;;;;;;;;;;5039717;28;20094;-85
2023/05/07 13:46:46;;;;;;;1.90;0.60;;;;;;;;;;5052837;28;20052;-84
2023/05/07 13:49:12;;;;;;;2.35;0.70;;;;;;;;;;5034496;28;20566;-84
2023/05/07 13:51:37;;;;;;;1.90;0.60;;;;;;;;;;5052338;28;20381;-84
2023/05/07 13:54:04;;;;;;;1.55;0.65;;;;;;;;;;5053666;28;20043;-84
2023/05/07 13:56:31;;;;;;;1.58;0.60;;;;;;;;;;5050517;28;20040;-84
2023/05/07 13:58:56;;;;;;;1.77;0.70;;;;;;;;;;5044671;28;20587;-84
2023/05/07 14:01:21;;;;;;;1.70;0.60;;;;;;;;;;5043431;28;20029;-83
2023/05/07 14:03:47;;;;;;;1.50;0.70;;;;;;;;;;5053294;28;20151;-84
2023/05/07 14:06:12;;;;;;;1.98;0.70;;;;;;;;;;5051032;28;20036;-83
2023/05/07 14:08:38;;;;;;;1.48;0.60;;;;;;;;;;5054535;28;20098;-84
2023/05/07 14:11:03;;;;;;;2.33;0.90;;;;;;;;;;5054796;28;20384;-84
2023/05/07 14:13:30;;;;;;;1.73;0.60;;;;;;;;;;5050513;28;20106;-84
2023/05/07 14:15:56;;;;;;;1.80;0.70;;;;;;;;;;5052372;28;20116;-83
2023/05/07 14:18:21;;;;;;;1.70;0.68;;;;;;;;;;5051227;28;20032;-84
2023/05/07 14:20:48;;;;;;;1.33;0.60;;;;;;;;;;5053589;28;20044;-86
2023/05/07 14:23:14;;;;;;;1.73;0.70;;;;;;;;;;5038939;28;20507;-85
2023/05/07 14:25:39;;;;;;;2.13;0.82;;;;;;;;;;5051879;28;20033;-85
2023/05/07 14:28:04;;;;;;;1.63;0.80;;;;;;;;;;5050270;28;20063;-84
2023/05/07 14:30:30;;;;;;;2.55;0.88;;;;;;;;;;5052234;28;20044;-84
2023/05/07 14:32:56;;;;;;;2.28;0.90;;;;;;;;;;5051841;28;20051;-84
2023/05/07 14:35:21;;;;;;;2.20;0.80;;;;;;;;;;5034362;28;20040;-84
2023/05/07 14:37:46;;;;;;;2.00;0.75;;;;;;;;;;5044021;28;20109;-85